createdAt,value
2017-11-19T00:00:36.695Z,97418.71
2017-11-19T00:03:05.599Z,97409.81
2017-11-19T00:05:33.941Z,97419.19
2017-11-19T00:08:02.439Z,97424.06
2017-11-19T00:10:30.886Z,97436.95
2017-11-19T00:12:59.473Z,97437.27
2017-11-19T00:15:28.276Z,97417.30
2017-11-19T00:17:57.129Z,97421.64
2017-11-19T00:20:25.915Z,97426.13
2017-11-19T00:22:54.740Z,97423.23
2017-11-19T00:25:23.940Z,97417.96
2017-11-19T00:27:52.630Z,97420.88
2017-11-19T00:30:22.069Z,97428.34
2017-11-19T00:32:50.911Z,97415.09
2017-11-19T00:35:19.876Z,97410.96
2017-11-19T00:37:48.582Z,97409.22
2017-11-19T00:40:17.275Z,97411.22
2017-11-19T00:42:45.996Z,97413.96
2017-11-19T00:45:15.506Z,97414.70
2017-11-19T00:47:44.245Z,97424.17
2017-11-19T00:50:13.081Z,97422.14
2017-11-19T00:55:18.024Z,97412.73
2017-11-19T00:57:46.934Z,97416.32
2017-11-19T01:00:15.739Z,97426.58
2017-11-19T01:02:44.498Z,97423.05
2017-11-19T01:05:22.888Z,97413.88
2017-11-19T01:07:51.666Z,97405.50
2017-11-19T01:10:20.934Z,97402.52
2017-11-19T01:12:49.644Z,97391.58
2017-11-19T01:15:18.423Z,97404.08
2017-11-19T01:17:47.337Z,97399.19
2017-11-19T01:20:16.068Z,97399.67
2017-11-19T01:22:44.917Z,97413.39
2017-11-19T01:25:14.821Z,97413.30
2017-11-19T01:27:43.701Z,97402.34
2017-11-19T01:30:13.355Z,97395.77
2017-11-19T01:32:42.128Z,97409.02
2017-11-19T01:35:10.988Z,97399.50
2017-11-19T01:37:40.312Z,97392.02
2017-11-19T01:40:09.345Z,97389.44
2017-11-19T01:42:38.062Z,97386.09
2017-11-19T01:45:07.924Z,97379.22
2017-11-19T01:47:37.165Z,97377.75
2017-11-19T01:50:07.024Z,97377.64
2017-11-19T01:52:35.944Z,97381.70
2017-11-19T01:55:04.656Z,97386.33
2017-11-19T01:57:33.305Z,97382.83
2017-11-19T02:00:02.982Z,97377.83
2017-11-19T02:02:31.785Z,97382.53
2017-11-19T02:05:00.596Z,97381.27
2017-11-19T02:07:29.495Z,97377.91
2017-11-19T02:09:58.208Z,97371.56
2017-11-19T02:12:27.731Z,97365.92
2017-11-19T02:14:57.237Z,97368.17
2017-11-19T02:17:26.715Z,97365.54
2017-11-19T02:19:56.237Z,97355.58
2017-11-19T02:22:25.154Z,97357.61
2017-11-19T02:24:53.985Z,97357.31
2017-11-19T02:27:22.749Z,97352.95
2017-11-19T02:29:51.617Z,97340.53
2017-11-19T02:32:21.375Z,97340.72
2017-11-19T02:34:51.119Z,97350.33
2017-11-19T02:37:19.830Z,97349.48
2017-11-19T02:39:50.387Z,97346.81
2017-11-19T02:42:19.929Z,97349.59
2017-11-19T02:44:49.687Z,97342.23
2017-11-19T02:47:19.443Z,97339.09
2017-11-19T02:49:50.124Z,97342.97
2017-11-19T02:52:19.923Z,97343.22
2017-11-19T02:54:50.405Z,97341.92
2017-11-19T02:57:20.476Z,97336.38
2017-11-19T02:59:49.711Z,97336.89
2017-11-19T03:02:18.506Z,97340.68
2017-11-19T03:04:47.353Z,97335.09
2017-11-19T03:07:16.234Z,97335.83
2017-11-19T03:09:45.265Z,97335.42
2017-11-19T03:12:14.743Z,97325.41
2017-11-19T03:14:44.367Z,97331.16
2017-11-19T03:17:13.159Z,97331.61
2017-11-19T03:19:41.904Z,97333.69
2017-11-19T03:22:10.767Z,97338.45
2017-11-19T03:24:39.460Z,97333.32
2017-11-19T03:27:08.342Z,97334.39
2017-11-19T03:29:37.782Z,97332.17
2017-11-19T03:32:06.566Z,97326.58
2017-11-19T03:34:35.493Z,97326.07
2017-11-19T03:37:04.765Z,97319.67
2017-11-19T03:39:33.599Z,97318.97
2017-11-19T03:42:03.245Z,97319.38
2017-11-19T03:44:31.954Z,97315.56
2017-11-19T03:47:01.588Z,97317.75
2017-11-19T03:49:31.788Z,97317.27
2017-11-19T03:52:00.446Z,97318.49
2017-11-19T03:54:29.220Z,97311.80
2017-11-19T03:56:57.928Z,97301.27
2017-11-19T03:59:26.814Z,97317.83
2017-11-19T04:01:55.616Z,97300.89
2017-11-19T04:04:25.415Z,97310.37
2017-11-19T04:06:54.333Z,97320.45
2017-11-19T04:09:23.617Z,97314.81
2017-11-19T04:11:52.900Z,97310.98
2017-11-19T04:14:21.614Z,97311.80
2017-11-19T04:16:50.571Z,97319.09
2017-11-19T04:19:19.437Z,97315.55
2017-11-19T04:21:48.194Z,97315.03
2017-11-19T04:24:17.753Z,97299.66
2017-11-19T04:26:46.456Z,97301.81
2017-11-19T04:29:15.422Z,97302.11
2017-11-19T04:31:44.936Z,97301.59
2017-11-19T04:34:13.636Z,97304.31
2017-11-19T04:36:43.112Z,97312.10
2017-11-19T04:39:11.833Z,97293.05
2017-11-19T04:41:41.134Z,97292.63
2017-11-19T04:44:09.864Z,97294.73
2017-11-19T04:46:38.660Z,97288.20
2017-11-19T04:49:08.147Z,97295.50
2017-11-19T04:51:37.026Z,97291.16
2017-11-19T04:54:05.856Z,97277.27
2017-11-19T04:56:34.631Z,97262.81
2017-11-19T04:59:03.360Z,97254.50
2017-11-19T05:01:32.056Z,97270.30
2017-11-19T05:04:00.874Z,97273.88
2017-11-19T05:06:29.510Z,97260.39
2017-11-19T05:08:58.318Z,97260.27
2017-11-19T05:11:26.996Z,97249.37
2017-11-19T05:13:56.949Z,97253.73
2017-11-19T05:16:25.977Z,97252.60
2017-11-19T05:18:54.825Z,97251.34
2017-11-19T05:21:23.499Z,97253.98
2017-11-19T05:23:52.148Z,97250.19
2017-11-19T05:26:21.412Z,97247.33
2017-11-19T05:28:50.096Z,97241.26
2017-11-19T05:31:19.373Z,97238.20
2017-11-19T05:33:48.421Z,97241.11
2017-11-19T05:36:18.034Z,97232.14
2017-11-19T05:38:47.912Z,97234.82
2017-11-19T05:41:17.414Z,97228.92
2017-11-19T05:43:46.296Z,97232.36
2017-11-19T05:46:15.032Z,97247.46
2017-11-19T05:48:44.612Z,97252.84
2017-11-19T05:51:13.782Z,97239.89
2017-11-19T05:53:42.536Z,97248.77
2017-11-19T05:56:11.606Z,97244.63
2017-11-19T05:58:40.297Z,97242.14
2017-11-19T06:01:09.142Z,97243.91
2017-11-19T06:03:38.116Z,97246.32
2017-11-19T06:06:07.470Z,97248.48
2017-11-19T06:08:36.186Z,97250.00
2017-11-19T06:11:04.932Z,97259.25
2017-11-19T06:13:33.968Z,97249.20
2017-11-19T06:16:02.829Z,97256.98
2017-11-19T06:18:32.204Z,97252.91
2017-11-19T06:21:01.191Z,97253.20
2017-11-19T06:23:30.489Z,97249.91
2017-11-19T06:25:59.965Z,97247.95
2017-11-19T06:28:29.024Z,97240.81
2017-11-19T06:30:57.901Z,97242.70
2017-11-19T06:33:26.645Z,97247.11
2017-11-19T06:35:55.409Z,97243.38
2017-11-19T06:38:24.336Z,97239.10
2017-11-19T06:40:53.173Z,97234.52
2017-11-19T06:43:22.100Z,97226.13
2017-11-19T06:45:50.964Z,97232.58
2017-11-19T06:48:19.672Z,97230.88
2017-11-19T06:50:48.561Z,97223.45
2017-11-19T06:53:18.271Z,97224.09
2017-11-19T06:55:47.079Z,97232.75
2017-11-19T06:58:15.719Z,97227.04
2017-11-19T07:00:44.554Z,97230.40
2017-11-19T07:03:13.308Z,97221.15
2017-11-19T07:05:42.072Z,97217.31
2017-11-19T07:08:11.206Z,97218.09
2017-11-19T07:10:40.169Z,97207.73
2017-11-19T07:13:08.912Z,97216.33
2017-11-19T07:15:37.652Z,97215.09
2017-11-19T07:18:06.601Z,97218.11
2017-11-19T07:20:37.179Z,97223.62
2017-11-19T07:23:07.167Z,97228.91
2017-11-19T07:25:36.527Z,97224.31
2017-11-19T07:28:05.515Z,97233.67
2017-11-19T07:30:34.579Z,97223.41
2017-11-19T07:33:03.699Z,97216.27
2017-11-19T07:35:32.569Z,97210.99
2017-11-19T07:38:01.473Z,97217.20
2017-11-19T07:40:30.116Z,97207.54
2017-11-19T07:42:59.110Z,97209.59
2017-11-19T07:45:27.918Z,97193.12
2017-11-19T07:47:56.795Z,97183.55
2017-11-19T07:50:25.533Z,97189.13
2017-11-19T07:52:54.252Z,97184.84
2017-11-19T07:55:23.136Z,97191.68
2017-11-19T07:57:52.387Z,97196.27
2017-11-19T08:00:21.979Z,97190.73
2017-11-19T08:02:50.892Z,97186.50
2017-11-19T08:05:19.904Z,97187.41
2017-11-19T08:07:48.794Z,97184.53
2017-11-19T08:10:17.498Z,97182.30
2017-11-19T08:12:46.281Z,97192.06
2017-11-19T08:15:15.070Z,97180.46
2017-11-19T08:17:43.842Z,97179.38
2017-11-19T08:20:12.675Z,97177.90
2017-11-19T08:22:41.513Z,97174.73
2017-11-19T08:25:10.351Z,97175.96
2017-11-19T08:27:39.197Z,97171.59
2017-11-19T08:30:08.772Z,97174.73
2017-11-19T08:32:37.868Z,97160.84
2017-11-19T08:35:06.710Z,97167.39
2017-11-19T08:37:35.707Z,97162.56
2017-11-19T08:40:04.548Z,97162.47
2017-11-19T08:42:34.182Z,97171.04
2017-11-19T08:45:02.962Z,97166.13
2017-11-19T08:47:31.801Z,97159.97
2017-11-19T08:50:00.671Z,97169.70
2017-11-19T08:52:29.395Z,97169.08
2017-11-19T08:54:58.115Z,97173.03
2017-11-19T08:57:27.025Z,97168.38
2017-11-19T08:59:55.966Z,97169.44
2017-11-19T09:02:29.909Z,97172.94
2017-11-19T09:04:58.816Z,97166.13
2017-11-19T09:07:27.531Z,97156.66
2017-11-19T09:09:56.364Z,97171.20
2017-11-19T09:12:25.201Z,97155.70
2017-11-19T09:14:54.413Z,97152.48
2017-11-19T09:17:23.443Z,97152.17
2017-11-19T09:19:52.199Z,97151.86
2017-11-19T09:22:20.859Z,97155.28
2017-11-19T09:24:49.794Z,97152.68
2017-11-19T09:27:19.605Z,97147.78
2017-11-19T09:29:49.048Z,97145.84
2017-11-19T09:32:17.893Z,97148.77
2017-11-19T09:34:47.066Z,97130.03
2017-11-19T09:37:15.817Z,97124.61
2017-11-19T09:39:44.508Z,97121.59
2017-11-19T09:42:13.623Z,97123.06
2017-11-19T09:44:43.073Z,97126.31
2017-11-19T09:47:12.596Z,97122.11
2017-11-19T09:49:41.819Z,97118.31
2017-11-19T09:52:10.630Z,97110.64
2017-11-19T09:54:39.349Z,97115.86
2017-11-19T09:57:08.077Z,97120.83
2017-11-19T09:59:36.814Z,97118.31
2017-11-19T10:02:05.639Z,97120.52
2017-11-19T10:04:34.479Z,97127.14
2017-11-19T10:07:03.352Z,97130.40
2017-11-19T10:09:32.618Z,97134.00
2017-11-19T10:12:01.739Z,97133.09
2017-11-19T10:14:30.604Z,97132.95
2017-11-19T10:16:59.574Z,97126.45
2017-11-19T10:19:28.604Z,97123.81
2017-11-19T10:21:57.581Z,97119.36
2017-11-19T10:24:26.493Z,97113.86
2017-11-19T10:26:55.400Z,97116.08
2017-11-19T10:29:24.169Z,97113.19
2017-11-19T10:31:53.096Z,97108.05
2017-11-19T10:34:21.995Z,97107.84
2017-11-19T10:36:50.741Z,97103.93
2017-11-19T10:39:19.574Z,97101.27
2017-11-19T10:41:48.416Z,97089.13
2017-11-19T10:44:17.333Z,97069.07
2017-11-19T10:46:46.292Z,97068.19
2017-11-19T10:49:15.273Z,97075.44
2017-11-19T10:51:44.105Z,97064.67
2017-11-19T10:54:13.266Z,97064.02
2017-11-19T10:56:42.890Z,97052.95
2017-11-19T10:59:12.581Z,97058.96
2017-11-19T11:01:42.086Z,97057.84
2017-11-19T11:04:11.003Z,97049.00
2017-11-19T11:06:40.937Z,97058.74
2017-11-19T11:09:11.904Z,97061.38
2017-11-19T11:11:40.961Z,97065.83
2017-11-19T11:14:09.681Z,97058.34
2017-11-19T11:16:38.655Z,97059.85
2017-11-19T11:19:07.380Z,97043.39
2017-11-19T11:21:36.129Z,97040.52
2017-11-19T11:24:04.827Z,97047.06
2017-11-19T11:26:33.774Z,97038.12
2017-11-19T11:29:03.001Z,97035.03
2017-11-19T11:31:32.105Z,97049.88
2017-11-19T11:34:01.126Z,97050.63
2017-11-19T11:36:29.938Z,97048.03
2017-11-19T11:38:59.698Z,97032.14
2017-11-19T11:41:28.577Z,97022.75
2017-11-19T11:44:19.881Z,97025.15
2017-11-19T11:46:48.606Z,97021.72
2017-11-19T11:49:17.349Z,97024.65
2017-11-19T11:51:46.282Z,97034.59
2017-11-19T11:54:15.052Z,97041.63
2017-11-19T11:56:43.808Z,97036.99
2017-11-19T11:59:12.676Z,97022.60
2017-11-19T12:01:41.546Z,97020.33
2017-11-19T12:04:11.172Z,97023.15
2017-11-19T12:06:39.928Z,97013.77
2017-11-19T12:09:09.545Z,97023.38
2017-11-19T12:11:38.324Z,97024.46
2017-11-19T12:14:07.419Z,97022.58
2017-11-19T12:16:37.002Z,97025.30
2017-11-19T12:19:06.262Z,97022.52
2017-11-19T12:21:35.319Z,97019.72
2017-11-19T12:24:04.143Z,97020.70
2017-11-19T12:26:32.899Z,97018.12
2017-11-19T12:29:01.779Z,97016.75
2017-11-19T12:31:30.618Z,97019.42
2017-11-19T12:33:59.489Z,97025.25
2017-11-19T12:36:28.935Z,97025.33
2017-11-19T12:38:57.821Z,97025.08
2017-11-19T12:41:26.741Z,97029.20
2017-11-19T12:43:56.618Z,97030.27
2017-11-19T12:46:25.320Z,97029.43
2017-11-19T12:48:55.634Z,97023.24
2017-11-19T12:51:25.686Z,97032.96
2017-11-19T12:53:55.679Z,97044.55
2017-11-19T12:56:25.646Z,97048.64
2017-11-19T12:58:54.862Z,97061.30
2017-11-19T13:01:25.753Z,97057.48
2017-11-19T13:03:55.040Z,97062.59
2017-11-19T13:06:23.980Z,97063.46
2017-11-19T13:08:53.346Z,97071.38
2017-11-19T13:11:23.042Z,97067.63
2017-11-19T13:13:51.885Z,97072.66
2017-11-19T13:16:20.923Z,97081.00
2017-11-19T13:18:49.640Z,97082.66
2017-11-19T13:21:19.510Z,97083.26
2017-11-19T13:23:48.345Z,97095.42
2017-11-19T13:26:17.390Z,97099.98
2017-11-19T13:28:47.104Z,97093.87
2017-11-19T13:31:15.789Z,97092.00
2017-11-19T13:33:44.831Z,97095.68
2017-11-19T13:36:14.482Z,97101.17
2017-11-19T13:38:43.573Z,97106.70
2017-11-19T13:41:12.614Z,97113.59
2017-11-19T13:43:41.954Z,97114.22
2017-11-19T13:46:11.226Z,97113.80
2017-11-19T13:48:40.031Z,97120.95
2017-11-19T13:51:08.844Z,97125.23
2017-11-19T13:53:37.720Z,97110.13
2017-11-19T13:56:06.505Z,97128.34
2017-11-19T13:58:35.184Z,97122.03
2017-11-19T14:01:04.616Z,97124.81
2017-11-19T14:03:33.444Z,97127.72
2017-11-19T14:06:02.224Z,97121.81
2017-11-19T14:08:31.604Z,97124.97
2017-11-19T14:11:01.006Z,97128.29
2017-11-19T14:13:29.908Z,97127.14
2017-11-19T14:15:59.021Z,97125.18
2017-11-19T14:18:28.917Z,97124.31
2017-11-19T14:20:57.757Z,97119.56
2017-11-19T14:23:26.591Z,97114.05
2017-11-19T14:25:56.437Z,97127.76
2017-11-19T14:28:25.575Z,97128.01
2017-11-19T14:30:54.431Z,97127.86
2017-11-19T14:33:24.252Z,97130.22
2017-11-19T14:35:53.179Z,97132.58
2017-11-19T14:38:22.087Z,97136.78
2017-11-19T14:40:51.325Z,97147.64
2017-11-19T14:43:20.008Z,97145.20
2017-11-19T14:45:49.156Z,97147.27
2017-11-19T14:48:17.952Z,97145.50
2017-11-19T14:50:46.725Z,97145.90
2017-11-19T14:53:15.763Z,97148.33
2017-11-19T14:55:44.597Z,97150.19
2017-11-19T14:58:13.546Z,97149.14
2017-11-19T15:00:42.372Z,97160.48
2017-11-19T15:03:11.978Z,97165.07
2017-11-19T15:05:40.732Z,97165.00
2017-11-19T15:08:09.649Z,97170.36
2017-11-19T15:10:39.056Z,97161.31
2017-11-19T15:13:08.016Z,97156.80
2017-11-19T15:15:36.998Z,97161.25
2017-11-19T15:18:05.757Z,97159.91
2017-11-19T15:20:34.668Z,97161.88
2017-11-19T15:23:03.564Z,97168.66
2017-11-19T15:25:32.369Z,97174.28
2017-11-19T15:28:03.102Z,97173.87
2017-11-19T15:30:32.315Z,97171.09
2017-11-19T15:33:02.871Z,97171.80
2017-11-19T15:35:33.276Z,97171.47
2017-11-19T15:38:02.546Z,97174.27
2017-11-19T15:40:33.217Z,97180.00
2017-11-19T15:43:02.503Z,97185.47
2017-11-19T15:45:33.224Z,97184.80
2017-11-19T15:48:02.794Z,97194.48
2017-11-19T15:50:33.509Z,97187.03
2017-11-19T15:53:03.678Z,97202.00
2017-11-19T15:55:32.870Z,97202.27
2017-11-19T15:58:01.740Z,97201.57
2017-11-19T16:00:31.422Z,97208.05
2017-11-19T16:03:00.195Z,97215.55
2017-11-19T16:05:29.772Z,97222.59
2017-11-19T16:07:58.621Z,97218.61
2017-11-19T16:10:27.872Z,97218.58
2017-11-19T16:12:57.479Z,97230.86
2017-11-19T16:15:26.374Z,97232.03
2017-11-19T16:17:55.187Z,97235.59
2017-11-19T16:20:24.149Z,97244.09
2017-11-19T16:22:53.045Z,97251.23
2017-11-19T16:25:21.824Z,97252.05
2017-11-19T16:27:50.631Z,97258.25
2017-11-19T16:30:19.364Z,97256.81
2017-11-19T16:32:48.350Z,97264.63
2017-11-19T16:35:17.245Z,97261.77
2017-11-19T16:37:46.044Z,97269.32
2017-11-19T16:40:14.975Z,97270.28
2017-11-19T16:42:44.641Z,97277.52
2017-11-19T16:45:14.179Z,97288.03
2017-11-19T16:47:43.735Z,97291.96
2017-11-19T16:50:12.638Z,97290.86
2017-11-19T16:52:42.285Z,97282.20
2017-11-19T16:55:11.078Z,97286.30
2017-11-19T16:57:40.064Z,97288.08
2017-11-19T17:00:08.892Z,97283.01
2017-11-19T17:02:37.653Z,97281.89
2017-11-19T17:05:06.437Z,97278.81
2017-11-19T17:07:35.289Z,97287.72
2017-11-19T17:10:04.792Z,97292.57
2017-11-19T17:12:34.996Z,97295.13
2017-11-19T17:15:04.732Z,97299.44
2017-11-19T17:17:33.559Z,97303.18
2017-11-19T17:20:02.448Z,97307.94
2017-11-19T17:22:31.277Z,97323.89
2017-11-19T17:25:00.039Z,97316.38
2017-11-19T17:27:29.366Z,97325.58
2017-11-19T17:29:58.137Z,97320.72
2017-11-19T17:32:26.949Z,97324.81
2017-11-19T17:35:00.368Z,97330.22
2017-11-19T17:37:29.707Z,97333.97
2017-11-19T17:39:58.534Z,97330.95
2017-11-19T17:42:28.187Z,97331.33
2017-11-19T17:44:57.142Z,97333.06
2017-11-19T17:47:27.622Z,97329.70
2017-11-19T17:49:57.353Z,97330.99
2017-11-19T17:52:26.134Z,97328.76
2017-11-19T17:54:55.091Z,97327.59
2017-11-19T17:57:23.915Z,97328.00
2017-11-19T17:59:52.732Z,97329.56
2017-11-19T18:02:21.695Z,97330.58
2017-11-19T18:04:51.084Z,97324.46
2017-11-19T18:07:20.625Z,97336.23
2017-11-19T18:09:50.522Z,97340.00
2017-11-19T18:12:19.795Z,97339.11
2017-11-19T18:14:48.845Z,97341.73
2017-11-19T18:17:18.088Z,97343.95
2017-11-19T18:19:47.008Z,97338.91
2017-11-19T18:22:15.844Z,97342.12
2017-11-19T18:24:44.673Z,97334.75
2017-11-19T18:27:14.424Z,97337.05
2017-11-19T18:29:43.441Z,97333.79
2017-11-19T18:32:12.591Z,97331.62
2017-11-19T18:34:41.645Z,97338.11
2017-11-19T18:37:10.394Z,97332.03
2017-11-19T18:39:39.171Z,97336.50
2017-11-19T18:42:08.217Z,97333.05
2017-11-19T18:44:37.003Z,97332.19
2017-11-19T18:47:07.594Z,97346.27
2017-11-19T18:49:37.921Z,97344.93
2017-11-19T18:52:07.961Z,97349.62
2017-11-19T18:54:37.212Z,97352.16
2017-11-19T18:57:06.033Z,97355.31
2017-11-19T18:59:34.789Z,97360.48
2017-11-19T19:02:04.544Z,97355.16
2017-11-19T19:04:33.248Z,97359.97
2017-11-19T19:07:02.122Z,97353.52
2017-11-19T19:09:30.999Z,97352.53
2017-11-19T19:11:59.872Z,97348.47
2017-11-19T19:14:28.767Z,97353.55
2017-11-19T19:16:57.997Z,97360.78
2017-11-19T19:19:26.999Z,97368.77
2017-11-19T19:21:56.127Z,97368.19
2017-11-19T19:24:24.910Z,97370.25
2017-11-19T19:26:54.493Z,97377.51
2017-11-19T19:29:24.267Z,97380.60
2017-11-19T19:31:53.059Z,97388.55
2017-11-19T19:34:21.884Z,97393.34
2017-11-19T19:36:50.860Z,97405.33
2017-11-19T19:39:20.995Z,97405.08
2017-11-19T19:41:50.489Z,97404.67
2017-11-19T19:44:19.370Z,97388.16
2017-11-19T19:46:48.339Z,97383.39
2017-11-19T19:49:17.792Z,97387.80
2017-11-19T19:51:47.259Z,97396.56
2017-11-19T19:54:16.077Z,97393.09
2017-11-19T19:56:44.805Z,97396.48
2017-11-19T19:59:13.489Z,97394.11
2017-11-19T20:01:42.422Z,97389.59
2017-11-19T20:04:11.319Z,97398.41
2017-11-19T20:06:40.900Z,97395.86
2017-11-19T20:09:09.844Z,97399.69
2017-11-19T20:11:38.792Z,97398.97
2017-11-19T20:14:08.342Z,97394.95
2017-11-19T20:16:37.215Z,97388.13
2017-11-19T20:19:06.069Z,97382.66
2017-11-19T20:21:34.958Z,97393.72
2017-11-19T20:24:04.899Z,97392.95
2017-11-19T20:26:33.939Z,97399.79
2017-11-19T20:29:02.776Z,97407.30
2017-11-19T20:31:31.754Z,97409.23
2017-11-19T20:34:00.948Z,97408.19
2017-11-19T20:36:29.940Z,97412.94
2017-11-19T20:38:59.458Z,97418.86
2017-11-19T20:41:30.244Z,97421.10
2017-11-19T20:43:59.861Z,97423.99
2017-11-19T20:46:29.700Z,97424.48
2017-11-19T20:49:00.267Z,97423.50
2017-11-19T20:51:29.716Z,97421.34
2017-11-19T20:54:00.411Z,97430.06
2017-11-19T20:56:29.716Z,97425.33
2017-11-19T20:59:00.480Z,97432.13
2017-11-19T21:01:30.559Z,97426.33
2017-11-19T21:04:00.630Z,97434.03
2017-11-19T21:06:29.971Z,97443.16
2017-11-19T21:09:00.659Z,97438.88
2017-11-19T21:11:29.936Z,97438.99
2017-11-19T21:13:58.648Z,97442.56
2017-11-19T21:16:27.297Z,97435.54
2017-11-19T21:18:56.067Z,97438.89
2017-11-19T21:21:24.739Z,97444.48
2017-11-19T21:23:54.239Z,97441.42
2017-11-19T21:26:22.923Z,97425.55
2017-11-19T21:28:52.509Z,97433.22
2017-11-19T21:31:21.289Z,97435.89
2017-11-19T21:33:49.957Z,97439.38
2017-11-19T21:36:18.798Z,97433.54
2017-11-19T21:38:47.536Z,97443.89
2017-11-19T21:41:16.196Z,97447.39
2017-11-19T21:43:44.873Z,97452.89
2017-11-19T21:46:13.796Z,97447.87
2017-11-19T21:48:42.655Z,97449.30
2017-11-19T21:51:11.454Z,97448.48
2017-11-19T21:53:40.176Z,97447.34
2017-11-19T21:56:08.997Z,97450.66
2017-11-19T21:58:37.707Z,97447.58
2017-11-19T22:01:06.616Z,97462.23
2017-11-19T22:03:36.124Z,97462.23
2017-11-19T22:06:04.879Z,97458.31
2017-11-19T22:08:33.690Z,97464.00
2017-11-19T22:11:02.352Z,97479.66
2017-11-19T22:13:31.091Z,97463.97
2017-11-19T22:15:59.915Z,97469.06
2017-11-19T22:18:28.747Z,97465.36
2017-11-19T22:20:58.255Z,97460.84
2017-11-19T22:23:27.052Z,97481.85
2017-11-19T22:25:55.770Z,97467.36
2017-11-19T22:28:24.466Z,97481.46
2017-11-19T22:30:53.226Z,97473.11
2017-11-19T22:33:22.816Z,97478.92
2017-11-19T22:35:51.999Z,97456.31
2017-11-19T22:38:20.725Z,97464.63
2017-11-19T22:40:50.227Z,97476.17
2017-11-19T22:43:19.735Z,97482.39
2017-11-19T22:45:48.656Z,97481.16
2017-11-19T22:48:17.358Z,97473.69
2017-11-19T22:50:46.332Z,97491.03
2017-11-19T22:53:15.097Z,97473.20
2017-11-19T22:55:43.936Z,97482.73
2017-11-19T22:58:13.117Z,97487.80
2017-11-19T23:00:42.784Z,97488.90
2017-11-19T23:03:11.735Z,97504.90
2017-11-19T23:05:40.544Z,97489.80
2017-11-19T23:08:10.151Z,97500.09
2017-11-19T23:10:38.905Z,97499.41
2017-11-19T23:13:07.696Z,97503.15
2017-11-19T23:15:36.685Z,97496.59
2017-11-19T23:18:05.451Z,97481.89
2017-11-19T23:20:35.086Z,97488.83
2017-11-19T23:23:04.051Z,97482.01
2017-11-19T23:25:32.844Z,97469.89
2017-11-19T23:28:02.499Z,97451.88
2017-11-19T23:30:31.304Z,97453.62
2017-11-19T23:33:00.006Z,97451.96
2017-11-19T23:35:28.794Z,97450.97
2017-11-19T23:37:57.621Z,97452.34
2017-11-19T23:40:27.220Z,97469.19
2017-11-19T23:42:56.034Z,97457.13
2017-11-19T23:45:24.807Z,97442.11
2017-11-19T23:47:53.811Z,97441.05
2017-11-19T23:50:22.639Z,97438.37
2017-11-19T23:52:51.651Z,97446.80
2017-11-19T23:55:20.703Z,97448.17
2017-11-19T23:57:49.498Z,97442.98
